Tiempo atmosférico en la estación meteorológica de Coll De Nargó, Lleida (603 m.)



Fecha
DESCASC
Temp. máxima en grados centígrados (hora)
DESCASC
Temp. mínima en grados centígrados (hora)
DESCASC
Temp. media en grados centígrados
DESCASC
Racha de viento máxima en m/sg (hora)
DESCASC
Velocidad máxima media en intervalos de 10 minutos(hora)
DESCASC
Precipitaciones diarias en mm
DESCASC
Precipitaciones de 00:00 a 06:00 en mm
DESCASC
Precipitaciones de 06:00 a 12:00 en mm
DESCASC
Precipitaciones de 12:00 a 18:00 en mm
DESCASC
Precipitaciones de 18:00 a 24:00 en mm
DESCASC
18-04-2019 20.3 (15:40) 6.4 (07:20) 13.3 13.33 (17:20) 8.06 (17:10) 0 0 0 0 0
17-04-2019 21.4 (16:50) 4.9 (07:30) 13.1 11.67 (19:00) 8.61 (19:20) 0 0 0 0 0
16-04-2019 18.3 (16:00) 5.6 (00:00) 11.9 10.28 (18:00) 7.78 (13:50) 2.2 2.2 0 0 0
15-04-2019 18.4 (15:10) 5.3 (00:00) 11.8 13.06 (12:30) 9.72 (12:30) 3.4 0 0 0 3.4
14-04-2019 20.5 (14:30) 1 (00:00) 10.8 13.61 (15:00) 10 (14:40) 0 0 0 0 0
13-04-2019 19.9 (16:30) 0.4 (00:00) 10.1 12.22 (15:10) 10.56 (13:30) 0 0 0 0 0
12-04-2019 20.8 (14:40) 4.1 (00:00) 12.4 13.06 (19:00) 8.61 (19:00) 0 0 0 0 0
11-04-2019 17.4 (14:20) 3.6 (00:00) 10.5 11.39 (16:40) 6.67 (16:40) 0 0 0 0 0
10-04-2019 16.5 (16:50) 0.8 (00:00) 8.7 12.22 (21:10) 8.89 (12:30) 0.2 0.2 0 0 0
09-04-2019 15.7 (12:20) 4.5 (00:00) 10.1 10 (14:20) 7.5 (13:00) 6 3 0 2.4 0.6
08-04-2019 18.3 (14:50) 1.5 (00:00) 9.9 9.72 (15:00) 7.22 (15:40) 0 0 0 0 0
07-04-2019 14.7 (13:20) 0.5 (00:00) 7.6 11.11 (17:20) 7.78 (17:20) 2 1.8 0 0.2 0
06-04-2019 11.5 (16:20) 3.3 (00:00) 7.4 11.11 (18:50) 8.33 (11:30) 13.2 6.2 2.8 0.6 3.6
05-04-2019 14.7 (15:40) -2.1 (-00:0) 6.3 10.28 (20:30) 6.11 (15:30) 10.8 0 0 0 10.8
04-04-2019 14.4 (16:50) -1.6 (-00:0) 6.4 12.5 (17:30) 10 (12:20) 0 0 0 0 0
03-04-2019 10.2 (00:00) 3.7 (00:00) 6.9 12.78 (12:30) 8.61 (12:20) 2 0.6 0.2 0.4 0.8
02-04-2019 19.3 (15:00) 5.2 (00:00) 12.2 12.78 (16:10) 9.44 (16:20) 0 0 0 0 0
01-04-2019 19 (16:20) 5.6 (00:00) 12.3 11.94 (16:00) 8.89 (14:50) 0 0 0 0 0
31-03-2019 16 (16:30) 0.9 (00:00) 8.4 11.67 (15:30) 6.39 (13:40) 0 0 0 0 0
30-03-2019 18.1 (15:30) -0.5 (-00:0) 8.8 12.78 (13:30) 7.78 (13:10) 0 0 0 0 0
29-03-2019 17.6 (16:10) 2 (00:00) 9.8 9.44 (13:00) 6.94 (21:10) 0 0 0 0 0
28-03-2019 16.7 (13:50) -0.9 (-00:0) 7.9 12.22 (15:50) 8.89 (12:10) 0 0 0 0 0
27-03-2019 17.1 (15:30) -0.6 (-00:0) 8.3 13.33 (13:50) 10 (13:40) 0 0 0 0 0
26-03-2019 19.5 (12:50) 3.4 (00:00) 11.5 15.28 (14:10) 8.89 (14:50) 0 0 0 0 0
25-03-2019 19.1 (15:30) 4.6 (00:00) 11.9 15.28 (12:40) 12.22 (12:30) 0 0 0 0 0
24-03-2019 24 (14:10) 2.9 (00:00) 13.5 9.17 (15:40) 6.67 (14:30) 0 0 0 0 0
23-03-2019 23 (14:00) 2.3 (00:00) 12.6 10.56 (16:10) 6.94 (15:30) 0 0 0 0 0
22-03-2019 21.3 (15:40) -0.6 (-00:0) 10.3 8.89 (20:50) 6.94 (20:30) 0 0 0 0 0
21-03-2019 17.3 (15:20) -2.2 (-00:0) 7.5 10 (13:30) 7.5 (13:30) 0 0 0 0 0

Gráficas

Temp. máximas Temp. mínimas Temp. medias Precipitaciones Rachas de viento máximas Velocidades máximas media en intervalos de 10 minutos

Datos horarios

Fecha y hora oficial Temperatura (ºC) Velocidad del viento (km/h) Dirección del viento Racha (km/h) Dirección de racha Precipitación (mm) Presión (hPa) Tendencia (hPa) Humedad (%)
2019-04-19 23:00:00 12.8 2 Nordeste 6 Nordeste 0 -- -- 52
2019-04-19 22:00:00 14 0 Calma 23 Sur 0 -- -- 45
2019-04-19 21:00:00 16.1 17 Sur 33 Sudeste 0 -- -- 39
2019-04-19 20:00:00 17.4 23 Sur 40 Sur 0 -- -- 36
2019-04-19 19:00:00 18.3 26 Sur 42 Sur 0 -- -- 34
2019-04-19 18:00:00 18.9 26 Sur 43 Sur 0 -- -- 35
2019-04-19 17:00:00 20.8 26 Sur 37 Sur 0 -- -- 33
2019-04-19 16:00:00 22 22 Sur 32 Sudeste 0 -- -- 33
2019-04-19 15:00:00 19.4 24 Sur 33 Sur 0 -- -- 35
2019-04-19 14:00:00 18.8 8 Sur 17 Nordeste 0 -- -- 39
2019-04-19 13:00:00 18.3 14 Norte 26 Norte 0 -- -- 37
2019-04-19 12:00:00 17.7 4 Nordeste 14 Norte 0 -- -- 41
2019-04-19 11:00:00 16.3 2 Noroeste 9 Noroeste 0 -- -- 40
2019-04-19 10:00:00 13.8 0 Calma 8 Nordeste 0 -- -- 55
2019-04-19 09:00:00 10.8 3 Norte 8 Nordeste 0 -- -- 60
2019-04-19 08:00:00 9.5 2 Norte 11 Nordeste 0 -- -- 67
2019-04-19 07:00:00 9.4 3 Sur 9 Nordeste 0 -- -- 71
2019-04-19 06:00:00 9.1 2 Norte 7 Norte 0 -- -- 72
2019-04-19 05:00:00 10.3 2 Sur 10 Sur 0 -- -- 67
2019-04-19 04:00:00 10.4 5 Sur 12 Norte 0 -- -- 67
2019-04-19 03:00:00 10.8 2 Sudoeste 15 Sur 0 -- -- 65
2019-04-19 02:00:00 9.9 5 Sur 10 Sur 0 -- -- 75
2019-04-19 01:00:00 10 4 Norte 8 Este 0 -- -- 75
2019-04-19 00:00:00 11.2 4 Nordeste 28 Sudeste 0 -- -- 63
2019-04-18 23:00:00 11.6 3 Nordeste 26 Sudeste 0 -- -- 68
2019-04-18 22:00:00 13.6 5 Sudeste 28 Sur 0 -- -- 57
2019-04-18 21:00:00 13.4 17 Sur 23 Sur 0 -- -- 62
2019-04-18 20:00:00 15.3 22 Sur 37 Sur 0 -- -- 51
2019-04-18 19:00:00 16.3 19 Sur 30 Sur 0 -- -- 52
2019-04-18 18:00:00 16.8 14 Sur 48 Sur 0 -- -- 50
2019-04-18 17:00:00 18.1 26 Sur 41 Sudeste 0 -- -- 47
2019-04-18 16:00:00 19.7 15 Sur 25 Sur 0 -- -- 47
2019-04-18 15:00:00 19.1 17 Sudeste 24 Sur 0 -- -- 52
2019-04-18 14:00:00 16.9 16 Sudeste 26 Sur 0 -- -- 55
2019-04-18 13:00:00 16.8 3 Noroeste 13 Norte 0 -- -- 58
2019-04-18 12:00:00 14 11 Norte 18 Norte 0 -- -- 72
2019-04-18 11:00:00 12.8 0 Calma 9 Norte 0 -- -- 80
2019-04-18 10:00:00 10.5 4 Norte 10 Norte 0 -- -- 91
2019-04-18 09:00:00 7.9 6 Norte 7 Norte 0 -- -- 99
2019-04-18 08:00:00 7 5 Norte 8 Norte 0 -- -- 100
2019-04-18 07:00:00 6.6 4 Nordeste 6 Nordeste 0 -- -- 99
2019-04-18 06:00:00 7.1 3 Norte 6 Norte 0 -- -- 99
2019-04-18 05:00:00 7.7 2 Nordeste 4 Sur 0 -- -- 97
2019-04-18 04:00:00 8.4 2 Sur 9 Sur 0 -- -- 95
2019-04-18 03:00:00 9 4 Sudoeste 6 Sur 0 -- -- 92
2019-04-18 02:00:00 9.6 3 Nordeste 10 Sur 0 -- -- 90
2019-04-18 01:00:00 10.5 10 Sur 17 Sur 0 -- -- 88
2019-04-18 00:00:00 11.3 13 Sur 22 Sur 0 -- -- 84
2019-04-17 23:00:00 12.6 23 Sur 38 Sur 0 -- -- 77
2019-04-17 22:00:00 13.3 27 Sur 36 Sur 0 -- -- 74
2019-04-17 21:00:00 14.5 26 Sur 40 Sur 0 -- -- 69
2019-04-17 20:00:00 15.7 24 Sur 41 Sudeste 0 -- -- 62
2019-04-17 19:00:00 17.3 29 Sur 42 Sudeste 0 -- -- 58
2019-04-17 18:00:00 19.7 17 Sur 31 Sur 0 -- -- 51
2019-04-17 17:00:00 21.1 19 Sudeste 30 Sur 0 -- -- 46
2019-04-17 16:00:00 18.9 22 Sur 32 Sur 0 -- -- 50
2019-04-17 15:00:00 19.8 21 Sur 37 Sur 0 -- -- 50
2019-04-17 14:00:00 18.2 21 Sur 38 Sur 0 -- -- 50
2019-04-17 13:00:00 18.4 26 Sur 40 Sudeste 0 -- -- 48
2019-04-17 12:00:00 17.6 23 Sudeste 29 Sur 0 -- -- 51
2019-04-17 11:00:00 17.1 3 Este 8 Sudeste 0 -- -- 53
2019-04-17 10:00:00 13.5 0 Calma 6 Norte 0 -- -- 65
2019-04-17 09:00:00 7 5 Nordeste 7 Nordeste 0 -- -- 97
2019-04-17 08:00:00 5 4 Norte 5 Norte 0 -- -- 98
2019-04-17 07:00:00 5.5 3 Norte 6 Norte 0 -- -- 98
2019-04-17 06:00:00 5.3 6 Norte 7 Norte 0 -- -- 96
2019-04-17 05:00:00 6.3 3 Norte 4 Noroeste 0 -- -- 94
2019-04-17 04:00:00 7 0 Calma 4 Sur 0 -- -- 92
2019-04-17 03:00:00 7.7 0 Calma 3 Nordeste 0 -- -- 86
2019-04-17 02:00:00 8.4 0 Calma 6 Sur 0 -- -- 84
2019-04-17 01:00:00 9.4 3 Sur 15 Sur 0 -- -- 78
2019-04-17 00:00:00 11.2 13 Sur 25 Sur 0 -- -- 71
2019-04-16 23:00:00 12.1 14 Sur 34 Sur 0 -- -- 67
2019-04-16 22:00:00 12.8 23 Sur 33 Sudeste 0 -- -- 67
2019-04-16 21:00:00 13.6 22 Sur 35 Sur 0 -- -- 64
2019-04-16 20:00:00 14.6 12 Sur 28 Sur 0 -- -- 59
2019-04-16 19:00:00 15.3 19 Sur 35 Sur 0 -- -- 56
2019-04-16 18:00:00 16.6 23 Sudeste 37 Sudeste 0 -- -- 54
2019-04-16 17:00:00 17.7 21 Sur 34 Sur 0 -- -- 50
2019-04-16 16:00:00 18.3 23 Sur 32 Sur 0 -- -- 51
2019-04-16 15:00:00 16.2 24 Sur 35 Sudeste 0 -- -- 57
2019-04-16 14:00:00 14.7 26 Sur 33 Sur 0 -- -- 60
2019-04-16 13:00:00 13.6 22 Sur 28 Sur 0 -- -- 65
2019-04-16 12:00:00 11.8 10 Sudeste 23 Sur 0 -- -- 74
2019-04-16 11:00:00 10.7 2 Norte 7 Sur 0 -- -- 87
2019-04-16 10:00:00 8 5 Norte 7 Nordeste 0 -- -- 99
2019-04-16 09:00:00 6.9 0 Calma 8 Norte 0 -- -- 100
2019-04-16 08:00:00 6.1 8 Norte 9 Norte 0 -- -- 100
2019-04-16 07:00:00 5.7 5 Norte 8 Nordeste 0 -- -- 99
2019-04-16 06:00:00 5.6 5 Norte 8 Norte 0 -- -- 99
2019-04-16 05:00:00 6 3 Sudeste 9 Noroeste 0 -- -- 98
2019-04-16 04:00:00 6.5 2 Sur 8 Sur 0 -- -- 97
2019-04-16 03:00:00 7.2 0 Calma 14 Nordeste 0 -- -- 94
2019-04-16 02:00:00 7.2 10 Noroeste 22 Oeste 1.2 -- -- 96
2019-04-16 01:00:00 8.2 8 Sudeste 30 Sur 1 -- -- 90
2019-04-16 00:00:00 8.6 8 Sudoeste 25 Sudoeste 2.2 -- -- 84
2019-04-15 23:00:00 9.7 21 Sur 33 Sudoeste 1.2 -- -- 78
2019-04-15 22:00:00 11.7 15 Sur 31 Sur 0 -- -- 59
2019-04-15 21:00:00 12.5 20 Sur 32 Sudeste 0 -- -- 53
2019-04-15 20:00:00 13.6 18 Sudeste 40 Sudeste 0 -- -- 50
2019-04-15 19:00:00 14.5 22 Sur 46 Sudeste 0 -- -- 53
2019-04-15 18:00:00 16 26 Sur 39 Sur 0 -- -- 53
2019-04-15 17:00:00 17.6 20 Sur 38 Sur 0 -- -- 54
2019-04-15 16:00:00 17.7 27 Sur 41 Sur 0 -- -- 54
2019-04-15 15:00:00 18.3 24 Sur 42 Sudeste 0 -- -- 51
2019-04-15 14:00:00 17.4 27 Sur 42 Sur 0 -- -- 52
2019-04-15 13:00:00 16.8 33 Sur 47 Sur 0 -- -- 50
2019-04-15 12:00:00 15.9 32 Sur 45 Sur 0 -- -- 49
2019-04-15 11:00:00 15.2 18 Sur 27 Sur 0 -- -- 51
2019-04-15 10:00:00 12.8 2 Sudeste 6 Norte 0 -- -- 71
2019-04-15 09:00:00 7.3 3 Nordeste 7 Nordeste 0 -- -- 94
2019-04-15 08:00:00 5.5 5 Nordeste 7 Nordeste 0 -- -- 97
2019-04-15 07:00:00 5.7 4 Nordeste 6 Nordeste 0 -- -- 95
2019-04-15 06:00:00 5.9 4 Nordeste 6 Norte 0 -- -- 95
2019-04-15 05:00:00 7.3 3 Sur 7 Sur 0 -- -- 90
2019-04-15 04:00:00 8.3 2 Sur 16 Sur 0 -- -- 87
2019-04-15 03:00:00 9.4 6 Sur 17 Sudeste 0 -- -- 83
2019-04-15 02:00:00 10.3 7 Sur 32 Sur 0 -- -- 80
2019-04-15 01:00:00 11.3 22 Sur 41 Sur 0 -- -- 77
2019-04-15 00:00:00 12.3 28 Sur 38 Sur 0 -- -- 73
2019-04-14 23:00:00 12.9 22 Sur 29 Sur 0 -- -- 71
2019-04-14 22:00:00 14.4 4 Norte 8 Norte 0 -- -- 62
2019-04-14 21:00:00 16.9 0 Calma 8 Norte 0 -- -- 51
2019-04-14 20:00:00 18.7 0 Calma 14 Sur 0 -- -- 51
2019-04-14 19:00:00 19.9 15 Sur 24 Sur 0 -- -- 47
2019-04-14 18:00:00 19.7 17 Sur 33 Sur 0 -- -- 43
2019-04-14 17:00:00 20.1 27 Sur 36 Sur 0 -- -- 36
2019-04-14 16:00:00 19.6 29 Sur 46 Sur 0 -- -- 34
2019-04-14 15:00:00 19.7 31 Sur 49 Sur 0 -- -- 34
2019-04-14 14:00:00 19.4 35 Sur 45 Sur 0 -- -- 33
2019-04-14 13:00:00 18.9 32 Sur 40 Sur 0 -- -- 34
2019-04-14 12:00:00 17.3 14 Sur 23 Sur 0 -- -- 31
2019-04-14 11:00:00 13.4 6 Nordeste 11 Nordeste 0 -- -- 36
2019-04-14 10:00:00 9.4 5 Norte 13 Norte 0 -- -- 45
2019-04-14 09:00:00 3.7 5 Norte 8 Noroeste 0 -- -- 68
2019-04-14 08:00:00 1.5 5 Noroeste 7 Norte 0 -- -- 70
2019-04-14 07:00:00 1.4 5 Norte 8 Norte 0 -- -- 72
2019-04-14 06:00:00 1.9 4 Norte 9 Norte 0 -- -- 74
2019-04-14 05:00:00 2.3 5 Norte 9 Norte 0 -- -- 74
2019-04-14 04:00:00 3 5 Norte 8 Nordeste 0 -- -- 68
2019-04-14 03:00:00 3.8 6 Norte 9 Noroeste 0 -- -- 69
2019-04-14 02:00:00 5.1 5 Norte 7 Norte 0 -- -- 63
2019-04-14 01:00:00 6 4 Nordeste 8 Norte 0 -- -- 62
2019-04-14 00:00:00 7.2 4 Norte 7 Norte 0 -- -- 61
2019-04-13 23:00:00 9 3 Norte 7 Nordeste 0 -- -- 52
2019-04-13 22:00:00 11.3 2 Nordeste 8 Sur 0 -- -- 47
2019-04-13 21:00:00 14.1 6 Sur 25 Sur 0 -- -- 38
2019-04-13 20:00:00 16 15 Sudoeste 32 Sur 0 -- -- 33
2019-04-13 19:00:00 17.5 23 Sur 35 Sur 0 -- -- 33
2019-04-13 18:00:00 19 24 Sur 37 Sur 0 -- -- 33
2019-04-13 17:00:00 19.7 28 Sudeste 41 Sudeste 0 -- -- 36
2019-04-13 16:00:00 19.3 31 Sudeste 44 Sur 0 -- -- 40
2019-04-13 15:00:00 19.5 28 Sudeste 41 Sur 0 -- -- 40
2019-04-13 14:00:00 18.1 31 Sur 43 Sur 0 -- -- 43
2019-04-13 13:00:00 17.1 27 Sur 37 Sur 0 -- -- 41
2019-04-13 12:00:00 15.5 4 Nordeste 11 Norte 0 -- -- 28
2019-04-13 11:00:00 11.4 7 Nordeste 13 Norte 0 -- -- 34
2019-04-13 10:00:00 7.6 5 Norte 9 Norte 0 -- -- 43
2019-04-13 09:00:00 2.2 4 Norte 9 Norte 0 -- -- 54
2019-04-13 08:00:00 0.5 4 Norte 6 Norte 0 -- -- 63
2019-04-13 07:00:00 1.4 6 Norte 8 Norte 0 -- -- 58
2019-04-13 06:00:00 2.4 4 Norte 8 Norte 0 -- -- 52
2019-04-13 05:00:00 4.5 3 Norte 13 Norte 0 -- -- 44
2019-04-13 04:00:00 5.4 6 Norte 27 Norte 0 -- -- 41
2019-04-13 03:00:00 6.2 17 Nordeste 27 Norte 0 -- -- 42
2019-04-13 02:00:00 6.6 20 Norte 26 Norte 0 -- -- 42
2019-04-13 01:00:00 8.7 12 Norte 26 Nordeste 0 -- -- 36
2019-04-13 00:00:00 9.7 18 Norte 30 Norte 0 -- -- 32
2019-04-12 23:00:00 10.1 13 Norte 27 Nordeste 0 -- -- 33
2019-04-12 22:00:00 11.9 13 Nordeste 33 Nordeste 0 -- -- 28
2019-04-12 21:00:00 12.5 17 Norte 36 Norte 0 -- -- 28
2019-04-12 20:00:00 14 20 Norte 39 Norte 0 -- -- 25
2019-04-12 19:00:00 16.1 31 Norte 47 Norte 0 -- -- 21
2019-04-12 18:00:00 18 24 Norte 40 Norte 0 -- -- 18
2019-04-12 17:00:00 19.2 25 Norte 36 Norte 0 -- -- 17
2019-04-12 16:00:00 19.7 16 Norte 28 Norte 0 -- -- 18
2019-04-12 15:00:00 20.1 10 Nordeste 21 Nordeste 0 -- -- 19
2019-04-12 14:00:00 19.5 8 Nordeste 16 Norte 0 -- -- 21
2019-04-12 13:00:00 18.8 6 Este 20 Nordeste 0 -- -- 23
2019-04-12 12:00:00 16.5 12 Nordeste 23 Nordeste 0 -- -- 28
2019-04-12 11:00:00 15 12 Norte 21 Norte 0 -- -- 36
2019-04-12 10:00:00 10.6 4 Nordeste 8 Nordeste 0 -- -- 59
2019-04-12 09:00:00 4.1 3 Norte 5 Norte 0 -- -- 89
2019-04-12 08:00:00 4.3 4 Sur 15 Sur 0 -- -- 90
2019-04-12 07:00:00 4.7 10 Sur 19 Sur 0 -- -- 88
2019-04-12 06:00:00 5.7 4 Sur 12 Sur 0 -- -- 81
2019-04-12 05:00:00 6.8 0 Calma 9 Norte 0 -- -- 70
2019-04-12 04:00:00 6.5 4 Nordeste 12 Noroeste 0 -- -- 70
2019-04-12 03:00:00 6.8 5 Norte 13 Norte 0 -- -- 69
2019-04-12 02:00:00 6.9 7 Norte 13 Norte 0 -- -- 67
2019-04-12 01:00:00 8.1 7 Norte 13 Norte 0 -- -- 63
2019-04-12 00:00:00 8.6 6 Nordeste 16 Norte 0 -- -- 59
2019-04-11 23:00:00 8.8 6 Norte 17 Norte 0 -- -- 58
2019-04-11 22:00:00 10 9 Norte 29 Norte 0 -- -- 53
2019-04-11 21:00:00 11.5 16 Norte 38 Norte 0 -- -- 47
2019-04-11 20:00:00 12.7 17 Norte 33 Nordeste 0 -- -- 43
2019-04-11 19:00:00 13.8 17 Norte 30 Norte 0 -- -- 41
2019-04-11 18:00:00 15.4 17 Norte 37 Norte 0 -- -- 37
2019-04-11 17:00:00 16 20 Norte 41 Norte 0 -- -- 36
2019-04-11 16:00:00 17 17 Norte 31 Nordeste 0 -- -- 33
2019-04-11 15:00:00 16.9 20 Norte 37 Noroeste 0 -- -- 31
2019-04-11 14:00:00 16.8 17 Norte 33 Norte 0 -- -- 30
2019-04-11 13:00:00 15.8 24 Norte 36 Nordeste 0 -- -- 29
2019-04-11 12:00:00 15.9 9 Norte 27 Nordeste 0 -- -- 28
2019-04-11 11:00:00 13.5 16 Nordeste 33 Nordeste 0 -- -- 32
2019-04-11 10:00:00 12.5 21 Norte 30 Nordeste 0 -- -- 38
2019-04-11 09:00:00 7.2 18 Nordeste 28 Norte 0 -- -- 57
2019-04-11 08:00:00 6.8 17 Norte 32 Norte 0 -- -- 56
2019-04-11 07:00:00 6.8 18 Norte 32 Norte 0 -- -- 56
2019-04-11 06:00:00 4 12 Norte 20 Norte 0 -- -- 80
2019-04-11 05:00:00 4.2 9 Norte 15 Norte 0 -- -- 78
2019-04-11 04:00:00 3.8 8 Norte 12 Noroeste 0 -- -- 79
2019-04-11 03:00:00 4.7 7 Norte 10 Nordeste 0 -- -- 73
2019-04-11 02:00:00 5.7 7 Nordeste 13 Nordeste 0 -- -- 68
2019-04-11 01:00:00 7.3 6 Norte 10 Noroeste 0 -- -- 60
2019-04-11 00:00:00 6.9 7 Norte 13 Norte 0 -- -- 60
2019-04-10 23:00:00 7.9 8 Norte 13 Norte 0 -- -- 53
2019-04-10 22:00:00 9.4 7 Norte 44 Norte 0 -- -- 47
2019-04-10 21:00:00 11.3 16 Norte 42 Norte 0 -- -- 40
2019-04-10 20:00:00 11.9 19 Norte 37 Norte 0 -- -- 40
2019-04-10 19:00:00 13.2 23 Norte 41 Norte 0 -- -- 37
2019-04-10 18:00:00 15.1 21 Norte 39 Nordeste 0 -- -- 33
2019-04-10 17:00:00 16 24 Norte 38 Norte 0 -- -- 33
2019-04-10 16:00:00 16 19 Nordeste 32 Norte 0 -- -- 35
2019-04-10 15:00:00 14.9 18 Nordeste 28 Nordeste 0 -- -- 40
2019-04-10 14:00:00 10.3 18 Sur 34 Sur 0 -- -- 77
2019-04-10 13:00:00 8 25 Sur 40 Sur 0 -- -- 85
2019-04-10 12:00:00 8.9 25 Sur 30 Sur 0 -- -- 80
2019-04-10 11:00:00 9.2 4 Nordeste 9 Norte 0 -- -- 69
2019-04-10 10:00:00 6.9 5 Nordeste 9 Nordeste 0 -- -- 92
2019-04-10 09:00:00 2 3 Norte 8 Nordeste 0 -- -- 100
2019-04-10 08:00:00 1.8 2 Noroeste 10 Norte 0 -- -- 100
2019-04-10 07:00:00 0.8 6 Norte 10 Norte 0 -- -- 100
2019-04-10 06:00:00 1.5 5 Norte 12 Norte 0 -- -- 100
2019-04-10 05:00:00 1.6 5 Norte 10 Norte 0 -- -- 100
2019-04-10 04:00:00 2.1 5 Norte 9 Norte 0 -- -- 100
2019-04-10 03:00:00 2.4 5 Norte 9 Norte 0.2 -- -- 100
2019-04-10 02:00:00 3 5 Norte 6 Norte 0 -- -- 100
2019-04-10 01:00:00 4 3 Nordeste 9 Nordeste 0 -- -- 100
2019-04-10 00:00:00 4.5 3 Norte 8 Nordeste 0 -- -- 99
2019-04-09 23:00:00 5.3 4 Nordeste 9 Noroeste 0 -- -- 99
2019-04-09 22:00:00 5.7 8 Norte 10 Norte 0 -- -- 98
2019-04-09 21:00:00 6.5 4 Nordeste 9 Sur 0 -- -- 96
2019-04-09 20:00:00 6.9 5 Sudeste 14 Sur 0.6 -- -- 96
2019-04-09 19:00:00 7.6 2 Este 12 Sur 0 -- -- 90
2019-04-09 18:00:00 7.4 4 Sur 23 Sur 0.4 -- -- 90
2019-04-09 17:00:00 7.9 2 Nordeste 10 Nordeste 0.2 -- -- 90
2019-04-09 16:00:00 7.7 3 Sur 31 Norte 1.6 -- -- 89
2019-04-09 15:00:00 10.4 9 Este 36 Sudeste 0.2 -- -- 70
2019-04-09 14:00:00 11.8 25 Sudeste 35 Sudeste 0 -- -- 72
2019-04-09 13:00:00 11.7 27 Sur 33 Sur 0 -- -- 75
2019-04-09 12:00:00 14.3 13 Sur 18 Sur 0 -- -- 65
2019-04-09 11:00:00 14.2 3 Este 6 Sudeste 0 -- -- 62
2019-04-09 10:00:00 10.3 3 Nordeste 10 Norte 0 -- -- 84
2019-04-09 09:00:00 5.6 7 Norte 11 Norte 0 -- -- 99
2019-04-09 08:00:00 5 4 Norte 6 Norte 0 -- -- 99
2019-04-09 07:00:00 5.1 4 Norte 9 Noroeste 0 -- -- 99
2019-04-09 06:00:00 5.5 5 Norte 9 Norte 0 -- -- 97
2019-04-09 05:00:00 6.5 6 Este 28 Norte 1.4 -- -- 98
2019-04-09 04:00:00 6.5 17 Sur 30 Sur 1.6 -- -- 96
2019-04-09 03:00:00 6 4 Nordeste 6 Nordeste 0 -- -- 92
2019-04-09 02:00:00 6.4 2 Noroeste 6 Sur 0 -- -- 94
2019-04-09 01:00:00 7.5 4 Sur 6 Sur 0 -- -- 91
2019-04-09 00:00:00 8.7 0 Calma 14 Sur 0 -- -- 83
2019-04-08 23:00:00 10.3 8 Sur 17 Sur 0 -- -- 78
2019-04-08 22:00:00 11.2 11 Sur 31 Sur 0 -- -- 75
2019-04-08 21:00:00 12.5 22 Sur 29 Sudeste 0 -- -- 70
2019-04-08 20:00:00 12.9 15 Sur 29 Sur 0 -- -- 67
2019-04-08 19:00:00 15.4 18 Sur 33 Sur 0 -- -- 55
2019-04-08 18:00:00 17 23 Sudeste 32 Sur 0 -- -- 54
2019-04-08 17:00:00 16 25 Sudeste 35 Sudeste 0 -- -- 57
2019-04-08 16:00:00 17.5 24 Sudeste 35 Sur 0 -- -- 49
2019-04-08 15:00:00 18 23 Sur 35 Sur 0 -- -- 47
2019-04-08 14:00:00 17.2 18 Sur 24 Sur 0 -- -- 45
2019-04-08 13:00:00 14.1 20 Sur 27 Sur 0 -- -- 57
2019-04-08 12:00:00 14 10 Sur 18 Sur 0 -- -- 57
2019-04-08 11:00:00 12.5 3 Nordeste 7 Nordeste 0 -- -- 61
2019-04-08 10:00:00 6.6 4 Norte 9 Norte 0 -- -- 92
2019-04-08 09:00:00 3.6 3 Norte 8 Norte 0 -- -- 100
2019-04-08 08:00:00 2.4 4 Norte 5 Noroeste 0 -- -- 100
2019-04-08 07:00:00 2.1 3 Norte 6 Norte 0 -- -- 100
2019-04-08 06:00:00 1.8 4 Norte 6 Norte 0 -- -- 100
2019-04-08 05:00:00 1.6 5 Norte 7 Norte 0 -- -- 100
2019-04-08 04:00:00 1.5 5 Norte 8 Norte 0 -- -- 100
2019-04-08 03:00:00 2 5 Norte 7 Norte 0 -- -- 99
2019-04-08 02:00:00 2.6 4 Norte 7 Norte 0 -- -- 98
2019-04-08 01:00:00 3.2 3 Norte 6 Nordeste 0 -- -- 97
2019-04-08 00:00:00 4.1 0 Calma 5 Norte 0 -- -- 94
2019-04-07 23:00:00 5.5 2 Sudeste 8 Sur 0 -- -- 88
2019-04-07 22:00:00 6.3 6 Sur 27 Sur 0 -- -- 82
2019-04-07 21:00:00 8.1 21 Sur 32 Sur 0 -- -- 74
2019-04-07 20:00:00 8.9 20 Sur 32 Sur 0 -- -- 69
2019-04-07 19:00:00 11.1 13 Sur 23 Sudeste 0 -- -- 63
2019-04-07 18:00:00 10.6 16 Sur 40 Sur 0 -- -- 64
2019-04-07 17:00:00 12.6 21 Sur 30 Sur 0 -- -- 58
2019-04-07 16:00:00 8.9 15 Sur 27 Sudoeste 0.2 -- -- 79
2019-04-07 15:00:00 13.2 8 Sur 15 Sur 0 -- -- 46
2019-04-07 14:00:00 12.2 0 Calma 37 Noroeste 0 -- -- 44
2019-04-07 13:00:00 13.7 5 Nordeste 12 Nordeste 0 -- -- 48
2019-04-07 12:00:00 11.3 6 Nordeste 18 Norte 0 -- -- 59
2019-04-07 11:00:00 9.2 9 Norte 18 Norte 0 -- -- 67
2019-04-07 10:00:00 7 9 Norte 19 Norte 0 -- -- 86
2019-04-07 09:00:00 1.7 3 Norte 15 Norte 0 -- -- 100
2019-04-07 08:00:00 0.8 11 Norte 18 Norte 0 -- -- 100
2019-04-07 07:00:00 0.8 4 Nordeste 13 Norte 0 -- -- 100
2019-04-07 06:00:00 1.2 5 Nordeste 9 Nordeste 0 -- -- 100
2019-04-07 05:00:00 2 3 Norte 11 Norte 0 -- -- 100
2019-04-07 04:00:00 2 4 Norte 7 Norte 0 -- -- 99
2019-04-07 03:00:00 2.6 5 Nordeste 8 Norte 0.2 -- -- 99
2019-04-07 02:00:00 2.7 4 Norte 10 Norte 0.2 -- -- 99
2019-04-07 01:00:00 3 8 Norte 12 Norte 1.4 -- -- 98
2019-04-07 00:00:00 3.7 5 Norte 27 Sur 2 -- -- 97
2019-04-06 23:00:00 4 3 Oeste 8 Nordeste 0 -- -- 98
2019-04-06 22:00:00 3.8 3 Nordeste 19 Norte 0.2 -- -- 96
2019-04-06 21:00:00 5.1 5 Nordeste 15 Oeste 0 -- -- 92
2019-04-06 20:00:00 5.3 6 Norte 19 Sudoeste 0.6 -- -- 93
2019-04-06 19:00:00 5.8 24 Oeste 40 Oeste 0.8 -- -- 80
2019-04-06 18:00:00 10.5 2 Nordeste 11 Sudoeste 0 -- -- 59
2019-04-06 17:00:00 9.8 5 Noroeste 17 Oeste 0 -- -- 59
2019-04-06 16:00:00 9.3 4 Norte 22 Noroeste 0 -- -- 72
2019-04-06 15:00:00 9.4 9 Sur 26 Noroeste 0 -- -- 71
2019-04-06 14:00:00 8.4 8 Sudeste 27 Sur 0.4 -- -- 89
2019-04-06 13:00:00 6.8 19 Sur 36 Sur 0.2 -- -- 91
2019-04-06 12:00:00 4.8 22 Sudeste 39 Sur 0.6 -- -- 96
2019-04-06 11:00:00 4.5 20 Sudeste 32 Sur 0.6 -- -- 98
2019-04-06 10:00:00 4.4 18 Sur 27 Sur 0.2 -- -- 99
2019-04-06 09:00:00 3.8 15 Sur 29 Sudeste 1 -- -- 100
2019-04-06 08:00:00 3.9 19 Sur 25 Sur 0.2 -- -- 100
2019-04-06 07:00:00 3.4 0 Calma 5 Norte 0.2 -- -- 99
2019-04-06 06:00:00 3.3 0 Calma 5 Sur 0 -- -- 99
2019-04-06 05:00:00 3.4 4 Norte 5 Norte 0.8 -- -- 100
2019-04-06 04:00:00 3.5 3 Norte 5 Norte 1.6 -- -- 99
2019-04-06 03:00:00 3.5 3 Norte 8 Norte 0.8 -- -- 99
2019-04-06 02:00:00 3.7 6 Norte 11 Norte 1 -- -- 98
2019-04-06 01:00:00 4.4 0 Calma 7 Oeste 2 -- -- 98
2019-04-06 00:00:00 4.5 6 Noroeste 14 Noroeste 2.8 -- -- 98
2019-04-05 23:00:00 5.9 10 Norte 13 Norte 6.2 -- -- 97
2019-04-05 22:00:00 6.6 5 Noroeste 22 Sudeste 1.4 -- -- 94
2019-04-05 21:00:00 8.5 4 Sudeste 37 Sudeste 0.2 -- -- 79
2019-04-05 20:00:00 8.7 6 Sudoeste 18 Sudoeste 0.2 -- -- 81
2019-04-05 19:00:00 9.5 5 Sudeste 17 Sur 0 -- -- 72
2019-04-05 18:00:00 9 10 Sur 26 Sudeste 0 -- -- 76
2019-04-05 17:00:00 11.1 13 Sur 29 Sur 0 -- -- 58
2019-04-05 16:00:00 13.3 15 Sur 37 Sudeste 0 -- -- 50
2019-04-05 15:00:00 14.1 15 Sur 22 Sur 0 -- -- 50
2019-04-05 14:00:00 10.3 4 Norte 14 Nordeste 0 -- -- 58
2019-04-05 13:00:00 8.5 4 Norte 8 Nordeste 0 -- -- 61
2019-04-05 12:00:00 6.2 0 Calma 8 Norte 0 -- -- 62
2019-04-05 11:00:00 4.5 4 Norte 8 Norte 0 -- -- 68
2019-04-05 10:00:00 2.6 3 Norte 7 Norte 0 -- -- 74
2019-04-05 09:00:00 0.7 4 Norte 9 Norte 0 -- -- 83
2019-04-05 08:00:00 -1.2 4 Nordeste 8 Nordeste 0 -- -- 89
2019-04-05 07:00:00 -1.9 4 Norte 8 Norte 0 -- -- 93
2019-04-05 06:00:00 -1.6 5 Norte 8 Norte 0 -- -- 92
2019-04-05 05:00:00 -0.7 4 Norte 7 Norte 0 -- -- 84
2019-04-05 04:00:00 -0.9 6 Norte 8 Nordeste 0 -- -- 87
2019-04-05 03:00:00 -0.5 6 Norte 8 Norte 0 -- -- 82
2019-04-05 02:00:00 0.4 4 Norte 7 Norte 0 -- -- 80
2019-04-05 01:00:00 1.5 3 Norte 5 Norte 0 -- -- 73
2019-04-05 00:00:00 2.8 3 Nordeste 5 Norte 0 -- -- 66
2019-04-04 23:00:00 4.2 3 Norte 6 Sur 0 -- -- 60
2019-04-04 22:00:00 6.1 4 Sur 21 Sur 0 -- -- 54
2019-04-04 21:00:00 7.9 12 Sudoeste 25 Sur 0 -- -- 46
2019-04-04 20:00:00 8.7 14 Sur 29 Sudeste 0 -- -- 46
2019-04-04 19:00:00 11 20 Sur 40 Sur 0 -- -- 39
2019-04-04 18:00:00 10.9 22 Sur 45 Sudeste 0 -- -- 37
2019-04-04 17:00:00 14.4 26 Sudeste 42 Sudeste 0 -- -- 36
2019-04-04 16:00:00 13.5 27 Sur 39 Sudeste 0 -- -- 38
2019-04-04 15:00:00 10.9 25 Sur 37 Sur 0 -- -- 45
2019-04-04 14:00:00 11.6 28 Sudeste 40 Sur 0 -- -- 49
2019-04-04 13:00:00 8.8 28 Sur 43 Sur 0 -- -- 61
2019-04-04 12:00:00 8 31 Sur 37 Sur 0 -- -- 67
2019-04-04 11:00:00 6 16 Sur 22 Sur 0 -- -- 78
2019-04-04 10:00:00 4.8 2 Norte 5 Sudeste 0 -- -- 79
2019-04-04 09:00:00 -1.3 0 Calma 3 Norte 0 -- -- 99
2019-04-04 08:00:00 -1.6 0 Calma 5 Sur 0 -- -- 98
2019-04-04 07:00:00 -0.8 3 Sur 10 Sur 0 -- -- 96
2019-04-04 06:00:00 0 7 Sur 25 Sur 0 -- -- 94
2019-04-04 05:00:00 0.8 14 Sur 34 Sur 0 -- -- 93
2019-04-04 04:00:00 1.5 25 Sur 38 Sur 0 -- -- 91
2019-04-04 03:00:00 2.3 16 Sur 30 Sur 0 -- -- 95
2019-04-04 02:00:00 3.2 16 Sur 31 Sur 0 -- -- 93
2019-04-04 01:00:00 3.5 22 Sur 29 Sur 0 -- -- 96
2019-04-04 00:00:00 3.7 14 Sur 31 Sur 0 -- -- 93
2019-04-03 23:00:00 4.6 22 Sur 35 Sur 0 -- -- 91
2019-04-03 22:00:00 5.2 29 Sur 37 Sur 0 -- -- 90
2019-04-03 21:00:00 5.9 25 Sudeste 37 Sudeste 0 -- -- 89
2019-04-03 20:00:00 6.3 28 Sur 38 Sur 0.2 -- -- 91
2019-04-03 19:00:00 7.1 15 Sur 27 Sudeste 0.6 -- -- 92
2019-04-03 18:00:00 7.7 13 Oeste 21 Sur 0 -- -- 81
2019-04-03 17:00:00 8.7 14 Sur 37 Sudeste 0.2 -- -- 92
2019-04-03 16:00:00 9.5 27 Sur 40 Sudeste 0 -- -- 83
2019-04-03 15:00:00 9.7 27 Sur 41 Sur 0 -- -- 83
2019-04-03 14:00:00 8.7 19 Sudeste 45 Sur 0.2 -- -- 90
2019-04-03 13:00:00 9 27 Sur 46 Sur 0 -- -- 89
2019-04-03 12:00:00 9.5 30 Sur 41 Sur 0 -- -- 85
2019-04-03 11:00:00 9.9 27 Sur 45 Sudeste 0 -- -- 86
2019-04-03 10:00:00 9.5 27 Sudeste 40 Sudeste 0 -- -- 87
2019-04-03 09:00:00 8.4 21 Sur 35 Sudeste 0 -- -- 94
2019-04-03 08:00:00 8.4 22 Sur 32 Sudeste 0.2 -- -- 94
2019-04-03 07:00:00 8.3 14 Sur 23 Sudeste 0 -- -- 96
2019-04-03 06:00:00 8.3 14 Sur 23 Sur 0.6 -- -- 96
2019-04-03 05:00:00 8.9 6 Sudoeste 21 Sudeste 0 -- -- 90
2019-04-03 04:00:00 8.8 10 Sudeste 30 Sudeste 0 -- -- 89
2019-04-03 03:00:00 9.8 17 Sur 26 Sur 0 -- -- 82
2019-04-03 02:00:00 9.4 7 Sudeste 27 Sudeste 0 -- -- 82
2019-04-03 01:00:00 10 19 Sur 34 Sur 0 -- -- 80
2019-04-03 00:00:00 10.2 23 Sur 35 Sur 0 -- -- 78
2019-04-02 23:00:00 10.4 26 Sur 36 Sudeste 0 -- -- 80
2019-04-02 22:00:00 10.1 9 Sudoeste 23 Sur 0 -- -- 87
2019-04-02 21:00:00 10.6 17 Sur 22 Sur 0 -- -- 84
2019-04-02 20:00:00 11.4 24 Sur 33 Sur 0 -- -- 78
2019-04-02 19:00:00 13.4 25 Sudeste 39 Sudeste 0 -- -- 62
2019-04-02 18:00:00 14.7 23 Sur 42 Sur 0 -- -- 53
2019-04-02 17:00:00 18.1 21 Sudeste 46 Sur 0 -- -- 38
2019-04-02 16:00:00 17.9 26 Sudeste 44 Sur 0 -- -- 46
2019-04-02 15:00:00 19.3 29 Sudeste 38 Sur 0 -- -- 44
2019-04-02 14:00:00 17.3 23 Sur 36 Sur 0 -- -- 51
2019-04-02 13:00:00 17 27 Sur 36 Sur 0 -- -- 53
2019-04-02 12:00:00 16.2 6 Sudeste 21 Sur 0 -- -- 54
2019-04-02 11:00:00 13.7 5 Nordeste 9 Nordeste 0 -- -- 61
2019-04-02 10:00:00 9.4 3 Norte 8 Norte 0 -- -- 76
2019-04-02 09:00:00 6.9 2 Norte 8 Norte 0 -- -- 87
2019-04-02 08:00:00 6.5 4 Noroeste 7 Norte 0 -- -- 88
2019-04-02 07:00:00 5.3 3 Norte 6 Norte 0 -- -- 91
2019-04-02 06:00:00 5.5 4 Norte 6 Norte 0 -- -- 88
2019-04-02 05:00:00 5.2 5 Norte 6 Nordeste 0 -- -- 90
2019-04-02 04:00:00 5.9 2 Norte 6 Norte 0 -- -- 85
2019-04-02 03:00:00 6.2 5 Norte 6 Norte 0 -- -- 83
2019-04-02 02:00:00 6.8 3 Nordeste 6 Nordeste 0 -- -- 80
2019-04-02 01:00:00 7.2 4 Norte 5 Norte 0 -- -- 77
2019-04-02 00:00:00 8.5 2 Norte 5 Norte 0 -- -- 70
2019-04-01 23:00:00 9.6 3 Nordeste 9 Sur 0 -- -- 64
2019-04-01 22:00:00 11.2 6 Sur 25 Sur 0 -- -- 58
2019-04-01 21:00:00 13.2 18 Sudeste 26 Sudeste 0 -- -- 51
2019-04-01 20:00:00 14.6 16 Sudeste 26 Sudeste 0 -- -- 47
2019-04-01 19:00:00 16.6 17 Sudeste 27 Sur 0 -- -- 42
2019-04-01 18:00:00 17.1 19 Sur 36 Sudeste 0 -- -- 44
2019-04-01 17:00:00 18.2 18 Sur 38 Sudeste 0 -- -- 43
2019-04-01 16:00:00 18.4 30 Sur 43 Sur 0 -- -- 43
2019-04-01 15:00:00 18.5 32 Sur 41 Sudeste 0 -- -- 45
2019-04-01 14:00:00 17.5 31 Sur 39 Sur 0 -- -- 48
2019-04-01 13:00:00 17.8 28 Sur 36 Sur 0 -- -- 47
2019-04-01 12:00:00 17.4 4 Nordeste 10 Sur 0 -- -- 45
2019-04-01 11:00:00 12.2 7 Norte 11 Norte 0 -- -- 59
2019-04-01 10:00:00 8.8 4 Norte 9 Nordeste 0 -- -- 73
2019-04-01 09:00:00 7 5 Norte 8 Nordeste 0 -- -- 81
2019-04-01 08:00:00 6 4 Norte 9 Noroeste 0 -- -- 84
2019-04-01 07:00:00 5.7 5 Norte 7 Norte 0 -- -- 85
2019-04-01 06:00:00 6.5 3 Norte 8 Norte 0 -- -- 79
2019-04-01 05:00:00 5.8 4 Norte 5 Norte 0 -- -- 85
2019-04-01 04:00:00 6 5 Norte 6 Norte 0 -- -- 86
2019-04-01 03:00:00 7.3 3 Norte 6 Nordeste 0 -- -- 82
2019-04-01 02:00:00 8.5 2 Norte 6 Sur 0 -- -- 78
2019-04-01 01:00:00 9.5 6 Sur 16 Sudeste 0 -- -- 75
2019-04-01 00:00:00 10.6 14 Sur 25 Sur 0 -- -- 73
2019-03-31 23:00:00 11.2 15 Sur 30 Sur 0 -- -- 70
2019-03-31 22:00:00 11.8 22 Sur 34 Sur 0 -- -- 66
2019-03-31 21:00:00 12.5 13 Sur 25 Sur 0 -- -- 57
2019-03-31 20:00:00 13.5 17 Sur 27 Sur 0 -- -- 51
2019-03-31 19:00:00 14.6 14 Sur 28 Sur 0 -- -- 48
2019-03-31 18:00:00 15.1 14 Sur 29 Sur 0 -- -- 44
2019-03-31 17:00:00 14.9 17 Sur 38 Sudeste 0 -- -- 48
2019-03-31 16:00:00 15.2 22 Sur 42 Sur 0 -- -- 51
2019-03-31 15:00:00 14.6 21 Sur 38 Sur 0 -- -- 52
2019-03-31 14:00:00 14.6 13 Sur 29 Sur 0 -- -- 53
2019-03-31 13:00:00 13.3 8 Sur 14 Sudeste 0 -- -- 49
2019-03-31 12:00:00 12.1 3 Nordeste 6 Nordeste 0 -- -- 50
2019-03-31 11:00:00 8.9 4 Norte 9 Norte 0 -- -- 61
2019-03-31 10:00:00 8.4 0 Calma 5 Norte 0 -- -- 63
2019-03-31 09:00:00 3 2 Norte 5 Norte 0 -- -- 89
2019-03-31 08:00:00 1.3 4 Norte 10 Norte 0 -- -- 95
2019-03-31 07:00:00 1.3 5 Norte 7 Norte 0 -- -- 97
2019-03-31 06:00:00 1.4 5 Norte 8 Norte 0 -- -- 95
2019-03-31 05:00:00 2.7 5 Norte 10 Norte 0 -- -- 95
2019-03-31 03:00:00 3 6 Norte 9 Norte 0 -- -- 91
2019-03-31 01:00:00 4.1 5 Norte 9 Norte 0 -- -- 86
2019-03-31 00:00:00 6 3 Nordeste 21 Sur 0 -- -- 79
2019-03-30 23:00:00 7.8 20 Sur 28 Sur 0 -- -- 76
2019-03-30 22:00:00 9 20 Sur 37 Sur 0 -- -- 70
2019-03-30 21:00:00 10.2 23 Sur 35 Sur 0 -- -- 63
2019-03-30 20:00:00 11.5 20 Sur 30 Sudeste 0 -- -- 55
2019-03-30 19:00:00 12.9 16 Sur 30 Sur 0 -- -- 47
2019-03-30 18:00:00 14.9 15 Sur 32 Sur 0 -- -- 41
2019-03-30 17:00:00 17 15 Sur 33 Sur 0 -- -- 38
2019-03-30 16:00:00 17.9 18 Sur 29 Sudeste 0 -- -- 36
2019-03-30 15:00:00 17.5 22 Sur 36 Sur 0 -- -- 37
2019-03-30 14:00:00 17 24 Sur 46 Sur 0 -- -- 39
2019-03-30 13:00:00 16.4 26 Sur 40 Sudeste 0 -- -- 44
2019-03-30 12:00:00 15.4 25 Sur 35 Sur 0 -- -- 47
2019-03-30 11:00:00 13.5 19 Sur 29 Sudeste 0 -- -- 50
2019-03-30 10:00:00 9.5 6 Nordeste 10 Nordeste 0 -- -- 56
2019-03-30 09:00:00 6.7 3 Nordeste 6 Norte 0 -- -- 67
2019-03-30 08:00:00 0 4 Norte 6 Norte 0 -- -- 99
2019-03-30 07:00:00 -0.2 4 Norte 6 Norte 0 -- -- 96
2019-03-30 06:00:00 -0.3 4 Norte 7 Norte 0 -- -- 96
2019-03-30 05:00:00 0 5 Norte 9 Norte 0 -- -- 96
2019-03-30 04:00:00 0.5 6 Norte 8 Norte 0 -- -- 94
2019-03-30 03:00:00 1.4 5 Norte 7 Norte 0 -- -- 91
2019-03-30 02:00:00 2.3 6 Norte 6 Norte 0 -- -- 86
2019-03-30 01:00:00 3.5 4 Norte 5 Norte 0 -- -- 79
2019-03-30 00:00:00 5 3 Norte 8 Nordeste 0 -- -- 72
2019-03-29 23:00:00 6.5 5 Sudeste 23 Sur 0 -- -- 69
2019-03-29 22:00:00 8.3 19 Sur 32 Sur 0 -- -- 61
2019-03-29 21:00:00 9.8 21 Sudeste 31 Sur 0 -- -- 55
2019-03-29 20:00:00 10.7 19 Sur 27 Sudeste 0 -- -- 56
2019-03-29 19:00:00 12.1 20 Sur 30 Sur 0 -- -- 51
2019-03-29 18:00:00 13.5 18 Sur 27 Sur 0 -- -- 44
2019-03-29 17:00:00 14.1 16 Sur 24 Sudeste 0 -- -- 43
2019-03-29 16:00:00 16.9 14 Sudoeste 25 Sur 0 -- -- 38
2019-03-29 15:00:00 15.3 15 Sur 28 Sur 0 -- -- 40
2019-03-29 14:00:00 14.8 16 Sur 32 Sur 0 -- -- 42
2019-03-29 13:00:00 16.2 21 Sur 34 Sur 0 -- -- 40
2019-03-29 12:00:00 14.7 15 Sur 31 Sudeste 0 -- -- 44
2019-03-29 11:00:00 14.9 4 Nordeste 9 Nordeste 0 -- -- 42
2019-03-29 10:00:00 10.2 5 Norte 8 Norte 0 -- -- 53
2019-03-29 09:00:00 6.3 5 Norte 9 Noroeste 0 -- -- 69
2019-03-29 08:00:00 3.7 4 Norte 6 Norte 0 -- -- 80
2019-03-29 07:00:00 2.2 4 Norte 9 Nordeste 0 -- -- 86
2019-03-29 06:00:00 3.2 3 Noroeste 9 Norte 0 -- -- 78
2019-03-29 05:00:00 2.1 5 Norte 9 Norte 0 -- -- 85
2019-03-29 04:00:00 2.1 5 Nordeste 7 Norte 0 -- -- 84
2019-03-29 03:00:00 2.5 5 Norte 9 Norte 0 -- -- 82
2019-03-29 02:00:00 3.4 4 Norte 7 Norte 0 -- -- 77
2019-03-29 01:00:00 4.6 4 Norte 7 Nordeste 0 -- -- 71
2019-03-29 00:00:00 6.5 2 Sur 29 Sur 0 -- -- 70
2019-03-28 23:00:00 8.2 22 Sur 36 Sur 0 -- -- 63
2019-03-28 22:00:00 9.6 23 Sur 36 Sur 0 -- -- 54
2019-03-28 21:00:00 10.3 25 Sur 37 Sur 0 -- -- 50
2019-03-28 20:00:00 10.4 9 Sur 21 Sur 0 -- -- 51
2019-03-28 19:00:00 12.3 17 Sur 29 Sur 0 -- -- 44
2019-03-28 18:00:00 14.2 19 Sur 34 Sur 0 -- -- 40
2019-03-28 17:00:00 15.5 25 Sur 38 Sur 0 -- -- 39
2019-03-28 16:00:00 16.5 29 Sur 44 Sudeste 0 -- -- 37
2019-03-28 15:00:00 16.6 31 Sur 44 Sur 0 -- -- 37
2019-03-28 14:00:00 16.4 32 Sur 41 Sur 0 -- -- 38
2019-03-28 13:00:00 16.2 28 Sur 40 Sur 0 -- -- 37
2019-03-28 12:00:00 14.6 30 Sur 39 Sur 0 -- -- 41
2019-03-28 11:00:00 14.1 15 Sur 30 Sur 0 -- -- 37
2019-03-28 10:00:00 9.6 5 Norte 8 Nordeste 0 -- -- 38
2019-03-28 09:00:00 6.6 3 Norte 7 Noroeste 0 -- -- 44
2019-03-28 08:00:00 0.4 5 Norte 8 Noroeste 0 -- -- 68
2019-03-28 07:00:00 -0.6 4 Norte 6 Norte 0 -- -- 78
2019-03-28 06:00:00 -0.1 4 Norte 8 Norte 0 -- -- 75
2019-03-28 05:00:00 0.3 6 Norte 8 Nordeste 0 -- -- 76
2019-03-28 04:00:00 1.1 6 Norte 8 Norte 0 -- -- 73
2019-03-28 03:00:00 2.5 4 Norte 8 Nordeste 0 -- -- 69
2019-03-28 02:00:00 3.4 5 Norte 8 Nordeste 0 -- -- 67
2019-03-28 01:00:00 5.8 2 Sudeste 8 Nordeste 0 -- -- 64
2019-03-28 00:00:00 5.6 3 Sudeste 17 Sur 0 -- -- 68
2019-03-27 23:00:00 6.5 3 Sudoeste 14 Sur 0 -- -- 69
2019-03-27 22:00:00 7.9 5 Sur 9 Sur 0 -- -- 61
2019-03-27 21:00:00 8.9 3 Nordeste 11 Sur 0 -- -- 56
2019-03-27 20:00:00 11 9 Sur 23 Sur 0 -- -- 49
2019-03-27 19:00:00 12.4 19 Sur 29 Sur 0 -- -- 46
2019-03-27 18:00:00 14.5 21 Sur 37 Sur 0 -- -- 40
2019-03-27 17:00:00 15.9 27 Sur 37 Sur 0 -- -- 38
2019-03-27 16:00:00 16.9 29 Sur 46 Sur 0 -- -- 36
2019-03-27 15:00:00 16.4 33 Sur 47 Sur 0 -- -- 39
2019-03-27 14:00:00 16.9 35 Sur 48 Sur 0 -- -- 39
2019-03-27 13:00:00 16.8 32 Sur 40 Sur 0 -- -- 38
2019-03-27 12:00:00 16.4 22 Sur 31 Sur 0 -- -- 29
2019-03-27 11:00:00 12.9 3 Nordeste 11 Nordeste 0 -- -- 23
2019-03-27 10:00:00 8.7 5 Nordeste 10 Norte 0 -- -- 30
2019-03-27 09:00:00 5.6 5 Norte 8 Norte 0 -- -- 34
2019-03-27 08:00:00 -0.2 5 Norte 9 Noroeste 0 -- -- 48
2019-03-27 07:00:00 -0.6 6 Norte 11 Norte 0 -- -- 53
2019-03-27 06:00:00 0.7 6 Norte 11 Norte 0 -- -- 44
2019-03-27 05:00:00 2.1 5 Norte 12 Norte 0 -- -- 37
2019-03-27 04:00:00 2.1 9 Nordeste 15 Norte 0 -- -- 40
2019-03-27 03:00:00 2.7 8 Norte 12 Norte -- -- -- 35
2019-03-27 02:00:00 4.7 6 Nordeste 20 Norte 0 -- -- 29
2019-03-27 01:00:00 3.1 14 Norte 19 Norte 0 -- -- 37
2019-03-27 00:00:00 4.6 8 Norte 14 Nordeste 0 -- -- 30
2019-03-26 23:00:00 6.5 3 Norte 12 Nordeste 0 -- -- 25
2019-03-26 22:00:00 8.8 4 Sur 17 Nordeste 0 -- -- 21
2019-03-26 21:00:00 8.4 9 Norte 13 Norte 0 -- -- 25
2019-03-26 20:00:00 11.6 10 Norte 36 Norte 0 -- -- 17
2019-03-26 19:00:00 13.4 15 Norte 36 Nordeste 0 -- -- 15
2019-03-26 18:00:00 15.1 18 Norte 38 Norte 0 -- -- 13
2019-03-26 17:00:00 16.7 31 Norte 51 Norte 0 -- -- 12
2019-03-26 16:00:00 18.3 21 Norte 46 Nordeste 0 -- -- 9
2019-03-26 15:00:00 18 28 Norte 55 Nordeste 0 -- -- 9
2019-03-26 14:00:00 18.5 21 Nordeste 51 Este 0 -- -- 7
2019-03-26 13:00:00 18.7 26 Norte 51 Nordeste 0 -- -- 7
2019-03-26 12:00:00 17.5 22 Nordeste 39 Nordeste 0 -- -- 8
2019-03-26 11:00:00 17.4 11 Norte 24 Noroeste 0 -- -- 10
2019-03-26 10:00:00 14.9 6 Norte 15 Norte 0 -- -- 14
2019-03-26 09:00:00 9.6 6 Norte 18 Nordeste 0 -- -- 29
2019-03-26 08:00:00 4.5 3 Nordeste 10 Nordeste 0 -- -- 40
2019-03-26 07:00:00 6.3 5 Norte 18 Noroeste 0 -- -- 36
2019-03-26 06:00:00 7.7 8 Norte 36 Nordeste 0 -- -- 33
2019-03-26 05:00:00 8.7 14 Nordeste 29 Nordeste 0 -- -- 33
2019-03-26 04:00:00 9.3 21 Nordeste 35 Nordeste 0 -- -- 32
2019-03-26 03:00:00 8.6 17 Norte 32 Nordeste 0 -- -- 38
2019-03-26 02:00:00 8.7 13 Norte 37 Nordeste 0 -- -- 40
2019-03-26 01:00:00 10.8 22 Nordeste 48 Nordeste 0 -- -- 35
2019-03-26 00:00:00 10.1 19 Norte 34 Nordeste 0 -- -- 39
2019-03-25 23:00:00 10.7 22 Nordeste 48 Nordeste 0 -- -- 39
2019-03-25 22:00:00 11.6 22 Nordeste 43 Nordeste 0 -- -- 36
2019-03-25 21:00:00 12.4 20 Norte 36 Nordeste 0 -- -- 33
2019-03-25 20:00:00 13.7 14 Nordeste 28 Nordeste 0 -- -- 29
2019-03-25 19:00:00 15 9 Norte 39 Nordeste 0 -- -- 25
2019-03-25 18:00:00 16.9 21 Norte 33 Norte 0 -- -- 22
2019-03-25 17:00:00 18.1 24 Sur 37 Sur 0 -- -- 46
2019-03-25 16:00:00 18.7 31 Sur 45 Sur 0 -- -- 43
2019-03-25 15:00:00 18.2 36 Sur 52 Sur 0 -- -- 46
2019-03-25 14:00:00 18.2 40 Sur 51 Sur 0 -- -- 44
2019-03-25 13:00:00 17.4 40 Sur 55 Sur 0 -- -- 45
2019-03-25 12:00:00 16.7 34 Sur 43 Sur 0 -- -- 47
2019-03-25 11:00:00 16.3 18 Sur 24 Sur 0 -- -- 43
2019-03-25 10:00:00 13.9 3 Nordeste 8 Nordeste 0 -- -- 42
2019-03-25 09:00:00 10.4 4 Nordeste 6 Nordeste 0 -- -- 52
2019-03-25 08:00:00 4.8 4 Norte 6 Norte 0 -- -- 73
2019-03-25 07:00:00 5 3 Norte 8 Noroeste 0 -- -- 72
2019-03-25 06:00:00 6.7 3 Norte 8 Norte 0 -- -- 65
2019-03-25 05:00:00 7.1 3 Norte 8 Noroeste 0 -- -- 64
2019-03-25 04:00:00 5.7 5 Norte 9 Norte 0 -- -- 72
2019-03-25 03:00:00 6.7 6 Norte 10 Noroeste 0 -- -- 68
2019-03-25 02:00:00 7 5 Norte 9 Norte 0 -- -- 68
2019-03-25 01:00:00 7.4 6 Norte 8 Norte 0 -- -- 67
2019-03-25 00:00:00 8.8 3 Norte 9 Norte 0 -- -- 61
2019-03-24 23:00:00 10.3 4 Norte 8 Norte 0 -- -- 55
2019-03-24 22:00:00 11.3 4 Nordeste 7 Norte 0 -- -- 52
2019-03-24 21:00:00 13 0 Calma 8 Sur 0 -- -- 45
2019-03-24 20:00:00 15.1 8 Sur 13 Sur 0 -- -- 39
2019-03-24 19:00:00 16.1 12 Sur 22 Sur 0 -- -- 37
2019-03-24 18:00:00 19.1 14 Sur 31 Sur 0 -- -- 30
2019-03-24 17:00:00 21 17 Sur 33 Sur 0 -- -- 28
2019-03-24 16:00:00 22.3 18 Sur 33 Sudeste 0 -- -- 26
2019-03-24 15:00:00 22.6 23 Sur 32 Sur 0 -- -- 25
2019-03-24 14:00:00 23.8 17 Sur 26 Sudeste 0 -- -- 19
2019-03-24 13:00:00 22.2 6 Sur 10 Sudeste 0 -- -- 19
2019-03-24 12:00:00 19.3 3 Nordeste 12 Nordeste 0 -- -- 25
2019-03-24 11:00:00 15.4 6 Norte 11 Norte 0 -- -- 33
2019-03-24 10:00:00 12.8 4 Nordeste 10 Nordeste 0 -- -- 41
2019-03-24 09:00:00 8.7 6 Norte 10 Nordeste 0 -- -- 53
2019-03-24 08:00:00 4.6 2 Norte 5 Norte 0 -- -- 67
2019-03-24 07:00:00 4 3 Norte 7 Norte 0 -- -- 72
2019-03-24 06:00:00 3.4 6 Norte 8 Norte 0 -- -- 76
2019-03-24 05:00:00 3.4 4 Norte 8 Norte 0 -- -- 77
2019-03-24 04:00:00 4.2 5 Noroeste 10 Norte 0 -- -- 74
2019-03-24 03:00:00 4.9 6 Norte 10 Norte 0 -- -- 69
2019-03-24 02:00:00 4.5 6 Nordeste 8 Nordeste 0 -- -- 73
2019-03-24 01:00:00 5.4 6 Norte 8 Norte 0 -- -- 68
2019-03-24 00:00:00 6.2 5 Norte 9 Norte 0 -- -- 66
2019-03-23 23:00:00 7.9 4 Norte 6 Norte 0 -- -- 58
2019-03-23 22:00:00 9.9 4 Norte 6 Nordeste 0 -- -- 49
2019-03-23 21:00:00 12.1 0 Calma 7 Este 0 -- -- 43
2019-03-23 20:00:00 13.4 3 Nordeste 8 Sur 0 -- -- 41
2019-03-23 19:00:00 15.6 4 Sur 25 Sur 0 -- -- 36
2019-03-23 18:00:00 18.2 16 Sur 31 Sur 0 -- -- 31
2019-03-23 17:00:00 20.3 17 Sur 38 Sudeste 0 -- -- 29
2019-03-23 16:00:00 22.3 22 Sudeste 36 Sudeste 0 -- -- 27
2019-03-23 15:00:00 22.2 24 Sur 32 Sudeste 0 -- -- 27
2019-03-23 14:00:00 23 21 Sur 27 Sur 0 -- -- 25
2019-03-23 13:00:00 22.5 17 Sudeste 25 Sudeste 0 -- -- 24
2019-03-23 12:00:00 18.7 3 Norte 9 Nordeste 0 -- -- 30
2019-03-23 11:00:00 14.8 5 Nordeste 10 Nordeste 0 -- -- 40
2019-03-23 10:00:00 11.5 4 Nordeste 8 Nordeste 0 -- -- 49
2019-03-23 09:00:00 7.9 5 Norte 8 Norte 0 -- -- 64
2019-03-23 08:00:00 3.7 3 Norte 9 Norte 0 -- -- 84
2019-03-23 07:00:00 2.3 4 Norte 7 Norte 0 -- -- 90
2019-03-23 06:00:00 3.2 4 Norte 8 Norte 0 -- -- 87
2019-03-23 05:00:00 3.6 4 Norte 8 Norte 0 -- -- 85
2019-03-23 04:00:00 3.6 6 Norte 9 Norte 0 -- -- 87
2019-03-23 03:00:00 4 7 Norte 9 Nordeste 0 -- -- 85
2019-03-23 02:00:00 4.7 6 Norte 8 Norte 0 -- -- 82
2019-03-23 01:00:00 6.4 4 Norte 7 Norte 0 -- -- 74
2019-03-23 00:00:00 7.7 5 Nordeste 7 Nordeste 0 -- -- 68
2019-03-22 23:00:00 9.5 2 Este 9 Sur 0 -- -- 61
2019-03-22 22:00:00 11.4 7 Sur 26 Sur 0 -- -- 56
2019-03-22 21:00:00 12.9 22 Sur 32 Sur 0 -- -- 51
2019-03-22 20:00:00 13.7 7 Sur 18 Sur 0 -- -- 48
2019-03-22 19:00:00 14.2 13 Sur 23 Sur 0 -- -- 48
2019-03-22 18:00:00 17.1 17 Sur 24 Sur 0 -- -- 40
2019-03-22 17:00:00 18.9 12 Sur 24 Sudeste 0 -- -- 35
2019-03-22 16:00:00 19.7 14 Sur 25 Sudeste 0 -- -- 33
2019-03-22 15:00:00 20.7 16 Sur 31 Sudeste 0 -- -- 32
2019-03-22 14:00:00 20.3 15 Sur 26 Sur 0 -- -- 33
2019-03-22 13:00:00 19.7 14 Sur 21 Sur 0 -- -- 32
2019-03-22 12:00:00 15.9 4 Nordeste 8 Nordeste 0 -- -- 33
2019-03-22 11:00:00 12.6 5 Nordeste 10 Nordeste 0 -- -- 38
2019-03-22 10:00:00 8.8 7 Nordeste 11 Nordeste 0 -- -- 47
2019-03-22 09:00:00 5 5 Norte 9 Norte 0 -- -- 59
2019-03-22 08:00:00 0.4 4 Norte 8 Norte 0 -- -- 79
2019-03-22 07:00:00 0 4 Norte 8 Norte 0 -- -- 80
2019-03-22 06:00:00 -0.4 6 Norte 9 Norte 0 -- -- 84
2019-03-22 05:00:00 1.1 5 Norte 9 Norte 0 -- -- 76
2019-03-22 04:00:00 0.3 6 Norte 9 Noroeste 0 -- -- 83
2019-03-22 03:00:00 0.9 6 Norte 11 Norte 0 -- -- 79
2019-03-22 02:00:00 1.2 6 Norte 9 Norte 0 -- -- 79
2019-03-22 01:00:00 2.6 5 Norte 8 Norte 0 -- -- 72
2019-03-22 00:00:00 3.4 4 Norte 7 Nordeste 0 -- -- 70
2019-03-21 23:00:00 4.8 3 Nordeste 7 Nordeste 0 -- -- 61
2019-03-21 22:00:00 6 3 Nordeste 15 Sur 0 -- -- 58
2019-03-21 21:00:00 7.6 0 Calma 8 Sur 0 -- -- 52
2019-03-21 20:00:00 10.4 4 Sur 21 Sur 0 -- -- 43
2019-03-21 19:00:00 10.7 16 Sur 23 Sur 0 -- -- 45
2019-03-21 18:00:00 13.9 13 Sur 25 Sur 0 -- -- 35
2019-03-21 17:00:00 16.1 18 Sur 25 Sur 0 -- -- 30
2019-03-21 16:00:00 16.9 15 Sur 30 Sur 0 -- -- 30
2019-03-21 15:00:00 17.1 18 Sur 31 Sur 0 -- -- 29
2019-03-21 14:00:00 16 25 Sudeste 36 Sudeste 0 -- -- 27
2019-03-21 13:00:00 16.2 24 Sur 30 Sur 0 -- -- 28
2019-03-21 12:00:00 15.4 5 Sudeste 10 Sur 0 -- -- 26
2019-03-21 11:00:00 12 3 Nordeste 9 Este 0 -- -- 32
2019-03-21 10:00:00 7.2 7 Nordeste 10 Norte 0 -- -- 43
2019-03-21 09:00:00 3.6 4 Norte 8 Noroeste 0 -- -- 52
2019-03-21 08:00:00 -2.2 4 Norte 8 Norte 0 -- -- 81
2019-03-21 07:00:00 -1 4 Norte 6 Norte 0 -- -- 70
2019-03-21 06:00:00 -0.3 5 Norte 10 Norte 0 -- -- 67
2019-03-21 05:00:00 -0.4 4 Norte 9 Norte 0 -- -- 74
2019-03-21 04:00:00 -0.4 6 Norte 10 Norte 0 -- -- 76
2019-03-21 03:00:00 1.4 3 Norte 14 Nordeste 0 -- -- 67
2019-03-21 02:00:00 1 9 Nordeste 14 Nordeste 0 -- -- 72
2019-03-21 01:00:00 1.7 2 Este 10 Norte 0 -- -- 76
2019-03-21 00:00:00 3.2 5 Norte 12 Norte 0 -- -- 69